sensor_id;sensor_type;location;lat;lon;timestamp;P1;durP1;ratioP1;P2;durP2;ratioP2
21754;SDS011;11039;50.028;19.938;2022-07-06T00:02:01;3.50;;;3.20;;
21754;SDS011;11039;50.028;19.938;2022-07-06T00:04:27;3.80;;;2.90;;
21754;SDS011;11039;50.028;19.938;2022-07-06T00:06:53;3.50;;;3.20;;
21754;SDS011;11039;50.028;19.938;2022-07-06T00:09:19;3.95;;;3.30;;
21754;SDS011;11039;50.028;19.938;2022-07-06T00:11:45;3.47;;;3.17;;
21754;SDS011;11039;50.028;19.938;2022-07-06T00:14:11;4.93;;;3.40;;
21754;SDS011;11039;50.028;19.938;2022-07-06T00:16:37;4.05;;;3.10;;
21754;SDS011;11039;50.028;19.938;2022-07-06T00:19:03;6.03;;;3.20;;
21754;SDS011;11039;50.028;19.938;2022-07-06T00:21:29;5.30;;;3.42;;
21754;SDS011;11039;50.028;19.938;2022-07-06T00:23:55;3.80;;;3.00;;
21754;SDS011;11039;50.028;19.938;2022-07-06T00:26:21;3.47;;;3.17;;
21754;SDS011;11039;50.028;19.938;2022-07-06T00:28:47;3.30;;;3.00;;
21754;SDS011;11039;50.028;19.938;2022-07-06T00:31:13;3.22;;;2.92;;
21754;SDS011;11039;50.028;19.938;2022-07-06T00:33:39;5.22;;;3.30;;
21754;SDS011;11039;50.028;19.938;2022-07-06T00:36:05;4.18;;;2.72;;
21754;SDS011;11039;50.028;19.938;2022-07-06T00:38:31;4.22;;;2.90;;
21754;SDS011;11039;50.028;19.938;2022-07-06T00:40:57;3.08;;;2.70;;
21754;SDS011;11039;50.028;19.938;2022-07-06T00:43:23;3.45;;;3.00;;
21754;SDS011;11039;50.028;19.938;2022-07-06T00:45:49;3.35;;;3.05;;
21754;SDS011;11039;50.028;19.938;2022-07-06T00:48:15;3.25;;;2.95;;
21754;SDS011;11039;50.028;19.938;2022-07-06T00:50:41;4.05;;;3.08;;
21754;SDS011;11039;50.028;19.938;2022-07-06T00:53:08;3.10;;;2.85;;
21754;SDS011;11039;50.028;19.938;2022-07-06T00:55:34;3.38;;;3.05;;
21754;SDS011;11039;50.028;19.938;2022-07-06T00:58:02;2.95;;;2.70;;
21754;SDS011;11039;50.028;19.938;2022-07-06T01:00:29;3.30;;;2.83;;
21754;SDS011;11039;50.028;19.938;2022-07-06T01:02:55;3.38;;;3.08;;
21754;SDS011;11039;50.028;19.938;2022-07-06T01:05:21;4.47;;;2.83;;
21754;SDS011;11039;50.028;19.938;2022-07-06T01:07:52;3.85;;;2.60;;
21754;SDS011;11039;50.028;19.938;2022-07-06T01:10:19;3.22;;;2.92;;
21754;SDS011;11039;50.028;19.938;2022-07-06T01:12:46;2.83;;;2.60;;
21754;SDS011;11039;50.028;19.938;2022-07-06T01:15:13;4.40;;;2.78;;
21754;SDS011;11039;50.028;19.938;2022-07-06T01:17:39;4.78;;;3.38;;
21754;SDS011;11039;50.028;19.938;2022-07-06T01:20:18;5.85;;;5.35;;
21754;SDS011;11039;50.028;19.938;2022-07-06T01:22:45;7.07;;;6.47;;
21754;SDS011;11039;50.028;19.938;2022-07-06T01:25:11;7.47;;;6.80;;
21754;SDS011;11039;50.028;19.938;2022-07-06T01:27:38;7.70;;;7.00;;
21754;SDS011;11039;50.028;19.938;2022-07-06T01:30:11;8.23;;;7.53;;
21754;SDS011;11039;50.028;19.938;2022-07-06T01:32:38;6.95;;;6.25;;
21754;SDS011;11039;50.028;19.938;2022-07-06T01:35:07;6.60;;;6.00;;
21754;SDS011;11039;50.028;19.938;2022-07-06T01:37:34;6.00;;;5.50;;
21754;SDS011;11039;50.028;19.938;2022-07-06T01:40:01;5.88;;;5.15;;
21754;SDS011;11039;50.028;19.938;2022-07-06T01:42:27;5.18;;;4.68;;
21754;SDS011;11039;50.028;19.938;2022-07-06T01:44:53;5.00;;;4.60;;
21754;SDS011;11039;50.028;19.938;2022-07-06T01:47:20;4.55;;;4.13;;
21754;SDS011;11039;50.028;19.938;2022-07-06T01:49:46;5.28;;;4.35;;
21754;SDS011;11039;50.028;19.938;2022-07-06T01:52:12;4.05;;;3.65;;
21754;SDS011;11039;50.028;19.938;2022-07-06T01:54:38;4.22;;;3.92;;
21754;SDS011;11039;50.028;19.938;2022-07-06T01:57:04;4.18;;;3.80;;
21754;SDS011;11039;50.028;19.938;2022-07-06T01:59:30;4.03;;;3.60;;
21754;SDS011;11039;50.028;19.938;2022-07-06T02:01:56;3.58;;;3.28;;
21754;SDS011;11039;50.028;19.938;2022-07-06T02:04:22;4.65;;;3.80;;
21754;SDS011;11039;50.028;19.938;2022-07-06T02:06:48;3.80;;;3.50;;
21754;SDS011;11039;50.028;19.938;2022-07-06T02:09:14;4.35;;;3.65;;
21754;SDS011;11039;50.028;19.938;2022-07-06T02:11:41;4.20;;;3.20;;
21754;SDS011;11039;50.028;19.938;2022-07-06T02:14:07;3.78;;;3.47;;
21754;SDS011;11039;50.028;19.938;2022-07-06T02:16:33;3.63;;;3.30;;
21754;SDS011;11039;50.028;19.938;2022-07-06T02:19:00;3.63;;;3.22;;
21754;SDS011;11039;50.028;19.938;2022-07-06T02:21:26;4.18;;;3.63;;
21754;SDS011;11039;50.028;19.938;2022-07-06T02:23:52;5.45;;;3.67;;
21754;SDS011;11039;50.028;19.938;2022-07-06T02:26:18;5.95;;;3.90;;
21754;SDS011;11039;50.028;19.938;2022-07-06T02:28:44;3.92;;;3.45;;
21754;SDS011;11039;50.028;19.938;2022-07-06T02:31:12;4.88;;;3.58;;
21754;SDS011;11039;50.028;19.938;2022-07-06T02:33:38;3.80;;;3.50;;
21754;SDS011;11039;50.028;19.938;2022-07-06T02:36:04;4.78;;;3.72;;
21754;SDS011;11039;50.028;19.938;2022-07-06T02:38:31;4.05;;;3.50;;
21754;SDS011;11039;50.028;19.938;2022-07-06T02:40:56;5.50;;;3.45;;
21754;SDS011;11039;50.028;19.938;2022-07-06T02:43:22;3.78;;;3.47;;
21754;SDS011;11039;50.028;19.938;2022-07-06T02:45:48;4.05;;;3.67;;
21754;SDS011;11039;50.028;19.938;2022-07-06T02:48:14;4.80;;;4.00;;
21754;SDS011;11039;50.028;19.938;2022-07-06T02:50:40;4.35;;;3.53;;
21754;SDS011;11039;50.028;19.938;2022-07-06T02:53:06;4.28;;;3.63;;
21754;SDS011;11039;50.028;19.938;2022-07-06T02:55:32;4.43;;;4.03;;
21754;SDS011;11039;50.028;19.938;2022-07-06T02:57:59;4.22;;;3.83;;
21754;SDS011;11039;50.028;19.938;2022-07-06T03:00:24;4.72;;;4.20;;
21754;SDS011;11039;50.028;19.938;2022-07-06T03:02:50;5.38;;;3.97;;
21754;SDS011;11039;50.028;19.938;2022-07-06T03:05:16;4.47;;;3.97;;
21754;SDS011;11039;50.028;19.938;2022-07-06T03:07:42;5.13;;;4.20;;
21754;SDS011;11039;50.028;19.938;2022-07-06T03:10:08;4.25;;;3.85;;
21754;SDS011;11039;50.028;19.938;2022-07-06T03:12:34;6.32;;;3.92;;
21754;SDS011;11039;50.028;19.938;2022-07-06T03:15:00;4.22;;;3.83;;
21754;SDS011;11039;50.028;19.938;2022-07-06T03:17:27;4.00;;;3.70;;
21754;SDS011;11039;50.028;19.938;2022-07-06T03:19:53;4.30;;;3.90;;
21754;SDS011;11039;50.028;19.938;2022-07-06T03:22:19;4.47;;;4.07;;
21754;SDS011;11039;50.028;19.938;2022-07-06T03:24:45;5.05;;;4.13;;
21754;SDS011;11039;50.028;19.938;2022-07-06T03:27:11;5.95;;;4.75;;
21754;SDS011;11039;50.028;19.938;2022-07-06T03:29:37;5.03;;;4.18;;
21754;SDS011;11039;50.028;19.938;2022-07-06T03:32:03;4.78;;;4.00;;
21754;SDS011;11039;50.028;19.938;2022-07-06T03:34:29;4.55;;;4.15;;
21754;SDS011;11039;50.028;19.938;2022-07-06T03:36:55;4.00;;;3.70;;
21754;SDS011;11039;50.028;19.938;2022-07-06T03:39:21;4.22;;;3.83;;
21754;SDS011;11039;50.028;19.938;2022-07-06T03:41:47;4.20;;;3.88;;
21754;SDS011;11039;50.028;19.938;2022-07-06T03:44:13;5.28;;;4.32;;
21754;SDS011;11039;50.028;19.938;2022-07-06T03:46:39;5.07;;;4.57;;
21754;SDS011;11039;50.028;19.938;2022-07-06T03:49:05;4.70;;;4.13;;
21754;SDS011;11039;50.028;19.938;2022-07-06T03:51:31;4.75;;;4.20;;
21754;SDS011;11039;50.028;19.938;2022-07-06T03:53:57;4.55;;;4.18;;
21754;SDS011;11039;50.028;19.938;2022-07-06T03:56:23;4.28;;;3.90;;
21754;SDS011;11039;50.028;19.938;2022-07-06T03:58:58;10.52;;;5.20;;
21754;SDS011;11039;50.028;19.938;2022-07-06T04:01:24;6.15;;;5.35;;
21754;SDS011;11039;50.028;19.938;2022-07-06T04:03:50;6.80;;;6.10;;
21754;SDS011;11039;50.028;19.938;2022-07-06T04:06:16;7.80;;;6.68;;
21754;SDS011;11039;50.028;19.938;2022-07-06T04:08:42;8.43;;;5.90;;
21754;SDS011;11039;50.028;19.938;2022-07-06T04:11:08;7.80;;;6.07;;
21754;SDS011;11039;50.028;19.938;2022-07-06T04:13:34;7.93;;;5.50;;
21754;SDS011;11039;50.028;19.938;2022-07-06T04:16:02;7.75;;;5.97;;
21754;SDS011;11039;50.028;19.938;2022-07-06T04:18:28;6.35;;;5.45;;
21754;SDS011;11039;50.028;19.938;2022-07-06T04:20:54;6.18;;;4.57;;
21754;SDS011;11039;50.028;19.938;2022-07-06T04:23:19;8.60;;;5.43;;
21754;SDS011;11039;50.028;19.938;2022-07-06T04:25:46;7.30;;;5.25;;
21754;SDS011;11039;50.028;19.938;2022-07-06T04:28:12;8.88;;;5.13;;
21754;SDS011;11039;50.028;19.938;2022-07-06T04:30:37;6.28;;;4.85;;
21754;SDS011;11039;50.028;19.938;2022-07-06T04:33:03;6.53;;;4.78;;
21754;SDS011;11039;50.028;19.938;2022-07-06T04:35:29;5.90;;;4.72;;
21754;SDS011;11039;50.028;19.938;2022-07-06T04:37:55;6.05;;;4.97;;
21754;SDS011;11039;50.028;19.938;2022-07-06T04:40:40;5.53;;;4.32;;
21754;SDS011;11039;50.028;19.938;2022-07-06T04:43:06;5.57;;;4.53;;
21754;SDS011;11039;50.028;19.938;2022-07-06T04:45:32;5.43;;;4.40;;
21754;SDS011;11039;50.028;19.938;2022-07-06T04:47:58;4.70;;;4.30;;
21754;SDS011;11039;50.028;19.938;2022-07-06T04:50:24;5.50;;;4.10;;
21754;SDS011;11039;50.028;19.938;2022-07-06T04:52:50;6.32;;;4.57;;
21754;SDS011;11039;50.028;19.938;2022-07-06T04:55:16;5.22;;;4.75;;
21754;SDS011;11039;50.028;19.938;2022-07-06T04:57:42;4.55;;;4.15;;
21754;SDS011;11039;50.028;19.938;2022-07-06T05:00:08;5.22;;;4.20;;
21754;SDS011;11039;50.028;19.938;2022-07-06T05:02:35;5.22;;;3.90;;
21754;SDS011;11039;50.028;19.938;2022-07-06T05:05:01;4.38;;;3.97;;
21754;SDS011;11039;50.028;19.938;2022-07-06T05:07:27;4.57;;;4.00;;
21754;SDS011;11039;50.028;19.938;2022-07-06T05:09:55;5.47;;;4.50;;
21754;SDS011;11039;50.028;19.938;2022-07-06T05:12:21;5.85;;;4.45;;
21754;SDS011;11039;50.028;19.938;2022-07-06T05:14:47;6.55;;;4.00;;
21754;SDS011;11039;50.028;19.938;2022-07-06T05:17:13;4.50;;;4.07;;
21754;SDS011;11039;50.028;19.938;2022-07-06T05:19:39;4.60;;;4.07;;
21754;SDS011;11039;50.028;19.938;2022-07-06T05:22:05;4.13;;;3.70;;
21754;SDS011;11039;50.028;19.938;2022-07-06T05:24:31;4.50;;;4.10;;
21754;SDS011;11039;50.028;19.938;2022-07-06T05:26:57;4.80;;;3.92;;
21754;SDS011;11039;50.028;19.938;2022-07-06T05:29:23;4.35;;;3.92;;
21754;SDS011;11039;50.028;19.938;2022-07-06T05:31:49;4.18;;;3.75;;
21754;SDS011;11039;50.028;19.938;2022-07-06T05:34:15;4.70;;;4.28;;
21754;SDS011;11039;50.028;19.938;2022-07-06T05:36:41;7.65;;;3.88;;
21754;SDS011;11039;50.028;19.938;2022-07-06T05:39:07;6.35;;;3.85;;
21754;SDS011;11039;50.028;19.938;2022-07-06T05:41:33;4.68;;;3.80;;
21754;SDS011;11039;50.028;19.938;2022-07-06T05:43:59;4.28;;;3.85;;
21754;SDS011;11039;50.028;19.938;2022-07-06T05:46:25;5.95;;;4.10;;
21754;SDS011;11039;50.028;19.938;2022-07-06T05:48:53;6.57;;;4.15;;
21754;SDS011;11039;50.028;19.938;2022-07-06T05:51:37;4.72;;;4.18;;
21754;SDS011;11039;50.028;19.938;2022-07-06T05:54:03;5.28;;;4.78;;
21754;SDS011;11039;50.028;19.938;2022-07-06T05:56:29;5.30;;;4.50;;
21754;SDS011;11039;50.028;19.938;2022-07-06T05:58:55;6.28;;;5.00;;
21754;SDS011;11039;50.028;19.938;2022-07-06T06:01:21;5.68;;;4.95;;
21754;SDS011;11039;50.028;19.938;2022-07-06T06:03:47;4.95;;;4.22;;
21754;SDS011;11039;50.028;19.938;2022-07-06T06:06:13;5.47;;;4.65;;
21754;SDS011;11039;50.028;19.938;2022-07-06T06:08:39;5.30;;;4.20;;
21754;SDS011;11039;50.028;19.938;2022-07-06T06:11:05;4.97;;;4.55;;
21754;SDS011;11039;50.028;19.938;2022-07-06T06:13:31;5.20;;;4.30;;
21754;SDS011;11039;50.028;19.938;2022-07-06T06:15:57;6.15;;;4.50;;
21754;SDS011;11039;50.028;19.938;2022-07-06T06:18:23;6.05;;;4.93;;
21754;SDS011;11039;50.028;19.938;2022-07-06T06:20:49;5.82;;;4.28;;
21754;SDS011;11039;50.028;19.938;2022-07-06T06:23:15;4.72;;;4.28;;
21754;SDS011;11039;50.028;19.938;2022-07-06T06:25:41;4.85;;;4.32;;
21754;SDS011;11039;50.028;19.938;2022-07-06T06:28:08;5.78;;;4.10;;
21754;SDS011;11039;50.028;19.938;2022-07-06T06:30:35;5.03;;;4.03;;
21754;SDS011;11039;50.028;19.938;2022-07-06T06:35:36;6.97;;;3.47;;
21754;SDS011;11039;50.028;19.938;2022-07-06T06:38:02;4.22;;;3.83;;
21754;SDS011;11039;50.028;19.938;2022-07-06T06:40:28;5.10;;;4.10;;
21754;SDS011;11039;50.028;19.938;2022-07-06T06:42:54;4.53;;;3.67;;
21754;SDS011;11039;50.028;19.938;2022-07-06T06:45:20;5.05;;;3.47;;
21754;SDS011;11039;50.028;19.938;2022-07-06T06:47:46;4.07;;;3.67;;
21754;SDS011;11039;50.028;19.938;2022-07-06T06:50:12;8.43;;;3.30;;
21754;SDS011;11039;50.028;19.938;2022-07-06T06:52:38;3.92;;;3.45;;
21754;SDS011;11039;50.028;19.938;2022-07-06T06:55:04;5.88;;;3.53;;
21754;SDS011;11039;50.028;19.938;2022-07-06T06:57:31;4.70;;;3.60;;
21754;SDS011;11039;50.028;19.938;2022-07-06T06:59:57;4.75;;;3.40;;
21754;SDS011;11039;50.028;19.938;2022-07-06T07:02:23;4.13;;;3.13;;
21754;SDS011;11039;50.028;19.938;2022-07-06T07:04:49;4.18;;;3.60;;
21754;SDS011;11039;50.028;19.938;2022-07-06T07:07:15;4.55;;;3.53;;
21754;SDS011;11039;50.028;19.938;2022-07-06T07:09:41;9.57;;;3.67;;
21754;SDS011;11039;50.028;19.938;2022-07-06T07:12:07;5.35;;;3.53;;
21754;SDS011;11039;50.028;19.938;2022-07-06T07:14:33;3.60;;;3.22;;
21754;SDS011;11039;50.028;19.938;2022-07-06T07:16:59;6.88;;;3.63;;
21754;SDS011;11039;50.028;19.938;2022-07-06T07:19:25;3.53;;;3.22;;
21754;SDS011;11039;50.028;19.938;2022-07-06T07:21:51;5.45;;;3.50;;
21754;SDS011;11039;50.028;19.938;2022-07-06T07:24:17;4.25;;;3.65;;
21754;SDS011;11039;50.028;19.938;2022-07-06T07:26:43;3.75;;;3.38;;
21754;SDS011;11039;50.028;19.938;2022-07-06T07:29:09;4.10;;;3.20;;
21754;SDS011;11039;50.028;19.938;2022-07-06T07:31:35;3.83;;;3.20;;
21754;SDS011;11039;50.028;19.938;2022-07-06T07:34:01;3.45;;;2.85;;
21754;SDS011;11039;50.028;19.938;2022-07-06T07:36:27;4.15;;;3.00;;
21754;SDS011;11039;50.028;19.938;2022-07-06T07:38:53;4.68;;;3.38;;
21754;SDS011;11039;50.028;19.938;2022-07-06T07:41:19;3.80;;;3.17;;
21754;SDS011;11039;50.028;19.938;2022-07-06T07:43:45;4.28;;;3.05;;
21754;SDS011;11039;50.028;19.938;2022-07-06T07:46:11;4.75;;;3.20;;
21754;SDS011;11039;50.028;19.938;2022-07-06T07:48:37;5.45;;;3.28;;
21754;SDS011;11039;50.028;19.938;2022-07-06T07:51:03;3.17;;;2.88;;
21754;SDS011;11039;50.028;19.938;2022-07-06T07:53:29;3.15;;;2.85;;
21754;SDS011;11039;50.028;19.938;2022-07-06T07:55:55;3.78;;;2.80;;
21754;SDS011;11039;50.028;19.938;2022-07-06T07:58:21;3.47;;;2.63;;
21754;SDS011;11039;50.028;19.938;2022-07-06T08:00:47;6.53;;;3.17;;
21754;SDS011;11039;50.028;19.938;2022-07-06T08:03:13;3.08;;;2.70;;
21754;SDS011;11039;50.028;19.938;2022-07-06T08:05:39;3.70;;;2.83;;
21754;SDS011;11039;50.028;19.938;2022-07-06T08:08:05;3.50;;;3.00;;
21754;SDS011;11039;50.028;19.938;2022-07-06T08:10:31;3.15;;;2.65;;
21754;SDS011;11039;50.028;19.938;2022-07-06T08:12:57;4.47;;;2.95;;
21754;SDS011;11039;50.028;19.938;2022-07-06T08:15:23;4.65;;;2.85;;
21754;SDS011;11039;50.028;19.938;2022-07-06T08:17:50;3.33;;;2.90;;
21754;SDS011;11039;50.028;19.938;2022-07-06T08:20:16;4.10;;;2.83;;
21754;SDS011;11039;50.028;19.938;2022-07-06T08:22:42;3.08;;;2.80;;
21754;SDS011;11039;50.028;19.938;2022-07-06T08:25:08;4.45;;;2.85;;
21754;SDS011;11039;50.028;19.938;2022-07-06T08:27:34;5.95;;;2.88;;
21754;SDS011;11039;50.028;19.938;2022-07-06T08:30:01;2.47;;;2.20;;
21754;SDS011;11039;50.028;19.938;2022-07-06T08:32:27;5.32;;;3.33;;
21754;SDS011;11039;50.028;19.938;2022-07-06T08:34:53;9.65;;;2.95;;
21754;SDS011;11039;50.028;19.938;2022-07-06T08:37:19;4.45;;;3.05;;
21754;SDS011;11039;50.028;19.938;2022-07-06T08:39:45;3.85;;;2.58;;
21754;SDS011;11039;50.028;19.938;2022-07-06T08:42:11;4.32;;;2.80;;
21754;SDS011;11039;50.028;19.938;2022-07-06T08:44:38;5.53;;;3.10;;
21754;SDS011;11039;50.028;19.938;2022-07-06T08:47:04;4.78;;;3.33;;
21754;SDS011;11039;50.028;19.938;2022-07-06T08:49:31;4.72;;;3.10;;
21754;SDS011;11039;50.028;19.938;2022-07-06T08:51:59;6.68;;;3.60;;
21754;SDS011;11039;50.028;19.938;2022-07-06T08:54:25;5.57;;;5.07;;
21754;SDS011;11039;50.028;19.938;2022-07-06T08:56:52;9.90;;;5.90;;
21754;SDS011;11039;50.028;19.938;2022-07-06T08:59:18;6.95;;;5.20;;
21754;SDS011;11039;50.028;19.938;2022-07-06T09:01:44;10.07;;;5.85;;
21754;SDS011;11039;50.028;19.938;2022-07-06T09:04:17;8.02;;;7.22;;
21754;SDS011;11039;50.028;19.938;2022-07-06T09:06:45;10.15;;;9.15;;
21754;SDS011;11039;50.028;19.938;2022-07-06T09:09:12;12.50;;;10.88;;
21754;SDS011;11039;50.028;19.938;2022-07-06T09:11:41;12.13;;;10.93;;
21754;SDS011;11039;50.028;19.938;2022-07-06T09:14:07;14.43;;;11.35;;
21754;SDS011;11039;50.028;19.938;2022-07-06T09:16:33;14.30;;;12.05;;
21754;SDS011;11039;50.028;19.938;2022-07-06T09:19:00;13.18;;;11.77;;
21754;SDS011;11039;50.028;19.938;2022-07-06T09:21:30;16.17;;;12.27;;
21754;SDS011;11039;50.028;19.938;2022-07-06T09:23:58;13.80;;;12.35;;
21754;SDS011;11039;50.028;19.938;2022-07-06T09:26:24;15.88;;;12.48;;
21754;SDS011;11039;50.028;19.938;2022-07-06T09:28:51;14.88;;;11.90;;
21754;SDS011;11039;50.028;19.938;2022-07-06T09:31:17;15.10;;;13.50;;
21754;SDS011;11039;50.028;19.938;2022-07-06T09:33:53;13.85;;;12.10;;
21754;SDS011;11039;50.028;19.938;2022-07-06T09:36:31;12.63;;;11.35;;
21754;SDS011;11039;50.028;19.938;2022-07-06T09:41:45;12.43;;;11.13;;
21754;SDS011;11039;50.028;19.938;2022-07-06T09:44:11;12.25;;;10.95;;
21754;SDS011;11039;50.028;19.938;2022-07-06T09:46:41;13.48;;;10.52;;
21754;SDS011;11039;50.028;19.938;2022-07-06T09:49:07;13.70;;;11.10;;
21754;SDS011;11039;50.028;19.938;2022-07-06T09:51:37;12.25;;;11.15;;
21754;SDS011;11039;50.028;19.938;2022-07-06T09:54:05;12.82;;;11.50;;
21754;SDS011;11039;50.028;19.938;2022-07-06T09:59:13;11.23;;;10.07;;
21754;SDS011;11039;50.028;19.938;2022-07-06T10:01:40;10.93;;;9.77;;
21754;SDS011;11039;50.028;19.938;2022-07-06T10:04:07;11.40;;;10.05;;
21754;SDS011;11039;50.028;19.938;2022-07-06T10:06:33;10.75;;;9.20;;
21754;SDS011;11039;50.028;19.938;2022-07-06T10:08:59;10.18;;;9.18;;
21754;SDS011;11039;50.028;19.938;2022-07-06T10:11:26;8.93;;;8.02;;
21754;SDS011;11039;50.028;19.938;2022-07-06T10:13:54;10.23;;;7.97;;
21754;SDS011;11039;50.028;19.938;2022-07-06T10:16:23;8.65;;;7.70;;
21754;SDS011;11039;50.028;19.938;2022-07-06T10:18:53;8.80;;;8.00;;
21754;SDS011;11039;50.028;19.938;2022-07-06T10:21:21;8.52;;;7.63;;
21754;SDS011;11039;50.028;19.938;2022-07-06T10:23:48;8.95;;;7.85;;
21754;SDS011;11039;50.028;19.938;2022-07-06T10:26:14;10.30;;;7.65;;
21754;SDS011;11039;50.028;19.938;2022-07-06T10:28:41;7.20;;;6.60;;
21754;SDS011;11039;50.028;19.938;2022-07-06T10:31:07;8.20;;;6.55;;
21754;SDS011;11039;50.028;19.938;2022-07-06T10:33:33;9.55;;;7.03;;
21754;SDS011;11039;50.028;19.938;2022-07-06T10:36:00;12.18;;;6.43;;
21754;SDS011;11039;50.028;19.938;2022-07-06T10:38:31;7.00;;;6.30;;
21754;SDS011;11039;50.028;19.938;2022-07-06T10:41:01;7.75;;;5.90;;
21754;SDS011;11039;50.028;19.938;2022-07-06T10:46:27;6.43;;;5.68;;
21754;SDS011;11039;50.028;19.938;2022-07-06T10:48:54;7.63;;;5.93;;
21754;SDS011;11039;50.028;19.938;2022-07-06T10:51:24;5.80;;;5.30;;
21754;SDS011;11039;50.028;19.938;2022-07-06T10:54:00;6.22;;;5.60;;
21754;SDS011;11039;50.028;19.938;2022-07-06T10:56:32;5.63;;;5.03;;
21754;SDS011;11039;50.028;19.938;2022-07-06T10:59:01;6.25;;;5.35;;
21754;SDS011;11039;50.028;19.938;2022-07-06T11:01:27;5.45;;;4.95;;
21754;SDS011;11039;50.028;19.938;2022-07-06T11:06:24;5.85;;;5.00;;
21754;SDS011;11039;50.028;19.938;2022-07-06T11:09:00;5.35;;;4.85;;
21754;SDS011;11039;50.028;19.938;2022-07-06T11:13:59;5.43;;;4.93;;
21754;SDS011;11039;50.028;19.938;2022-07-06T11:16:27;5.22;;;4.70;;
21754;SDS011;11039;50.028;19.938;2022-07-06T11:19:09;5.50;;;5.00;;
21754;SDS011;11039;50.028;19.938;2022-07-06T11:21:37;6.88;;;5.05;;
21754;SDS011;11039;50.028;19.938;2022-07-06T11:24:04;6.95;;;4.70;;
21754;SDS011;11039;50.028;19.938;2022-07-06T11:26:32;6.60;;;4.93;;
21754;SDS011;11039;50.028;19.938;2022-07-06T11:29:01;5.72;;;5.13;;
21754;SDS011;11039;50.028;19.938;2022-07-06T11:31:27;5.82;;;5.00;;
21754;SDS011;11039;50.028;19.938;2022-07-06T11:33:53;6.53;;;4.55;;
21754;SDS011;11039;50.028;19.938;2022-07-06T11:36:20;5.07;;;4.40;;
21754;SDS011;11039;50.028;19.938;2022-07-06T11:38:49;5.13;;;4.63;;
21754;SDS011;11039;50.028;19.938;2022-07-06T11:41:16;6.05;;;4.80;;
21754;SDS011;11039;50.028;19.938;2022-07-06T11:43:43;5.05;;;4.53;;
21754;SDS011;11039;50.028;19.938;2022-07-06T11:46:19;5.47;;;4.97;;
21754;SDS011;11039;50.028;19.938;2022-07-06T11:48:46;5.18;;;4.68;;
21754;SDS011;11039;50.028;19.938;2022-07-06T11:51:12;6.20;;;4.97;;
21754;SDS011;11039;50.028;19.938;2022-07-06T11:53:43;7.78;;;4.80;;
21754;SDS011;11039;50.028;19.938;2022-07-06T11:56:10;5.25;;;4.40;;
21754;SDS011;11039;50.028;19.938;2022-07-06T11:58:36;8.30;;;4.47;;
21754;SDS011;11039;50.028;19.938;2022-07-06T12:01:05;6.55;;;4.97;;
21754;SDS011;11039;50.028;19.938;2022-07-06T12:03:31;6.00;;;4.43;;
21754;SDS011;11039;50.028;19.938;2022-07-06T12:05:58;5.15;;;4.60;;
21754;SDS011;11039;50.028;19.938;2022-07-06T12:08:24;6.43;;;4.07;;
21754;SDS011;11039;50.028;19.938;2022-07-06T12:10:50;5.00;;;4.18;;
21754;SDS011;11039;50.028;19.938;2022-07-06T12:13:17;5.35;;;3.88;;
21754;SDS011;11039;50.028;19.938;2022-07-06T12:15:43;5.47;;;3.80;;
21754;SDS011;11039;50.028;19.938;2022-07-06T12:18:09;4.55;;;3.92;;
21754;SDS011;11039;50.028;19.938;2022-07-06T12:20:36;5.88;;;4.43;;
21754;SDS011;11039;50.028;19.938;2022-07-06T12:23:02;5.00;;;3.80;;
21754;SDS011;11039;50.028;19.938;2022-07-06T12:25:32;5.22;;;4.00;;
21754;SDS011;11039;50.028;19.938;2022-07-06T12:27:59;6.97;;;4.57;;
21754;SDS011;11039;50.028;19.938;2022-07-06T12:30:25;7.70;;;4.70;;
21754;SDS011;11039;50.028;19.938;2022-07-06T12:35:36;7.45;;;4.00;;
21754;SDS011;11039;50.028;19.938;2022-07-06T12:38:02;7.72;;;4.22;;
21754;SDS011;11039;50.028;19.938;2022-07-06T12:40:28;7.50;;;4.22;;
21754;SDS011;11039;50.028;19.938;2022-07-06T12:42:54;5.47;;;4.38;;
21754;SDS011;11039;50.028;19.938;2022-07-06T12:45:26;7.47;;;4.68;;
21754;SDS011;11039;50.028;19.938;2022-07-06T12:50:39;5.68;;;4.15;;
21754;SDS011;11039;50.028;19.938;2022-07-06T12:53:11;6.00;;;4.35;;
21754;SDS011;11039;50.028;19.938;2022-07-06T12:55:48;7.93;;;4.30;;
21754;SDS011;11039;50.028;19.938;2022-07-06T12:58:18;5.30;;;4.00;;
21754;SDS011;11039;50.028;19.938;2022-07-06T13:00:44;6.32;;;4.47;;
21754;SDS011;11039;50.028;19.938;2022-07-06T13:03:11;6.80;;;4.15;;
21754;SDS011;11039;50.028;19.938;2022-07-06T13:05:37;3.40;;;3.10;;
21754;SDS011;11039;50.028;19.938;2022-07-06T13:08:03;6.40;;;3.65;;
21754;SDS011;11039;50.028;19.938;2022-07-06T13:10:29;6.72;;;4.28;;
21754;SDS011;11039;50.028;19.938;2022-07-06T13:12:55;5.57;;;3.53;;
21754;SDS011;11039;50.028;19.938;2022-07-06T13:15:21;7.10;;;3.88;;
21754;SDS011;11039;50.028;19.938;2022-07-06T13:17:47;10.27;;;4.07;;
21754;SDS011;11039;50.028;19.938;2022-07-06T13:20:13;7.35;;;3.92;;
21754;SDS011;11039;50.028;19.938;2022-07-06T13:22:42;8.30;;;3.80;;
21754;SDS011;11039;50.028;19.938;2022-07-06T13:25:08;3.97;;;3.45;;
21754;SDS011;11039;50.028;19.938;2022-07-06T13:27:34;4.43;;;2.90;;
21754;SDS011;11039;50.028;19.938;2022-07-06T13:30:00;7.05;;;3.33;;
21754;SDS011;11039;50.028;19.938;2022-07-06T13:32:26;3.33;;;2.80;;
21754;SDS011;11039;50.028;19.938;2022-07-06T13:34:52;4.40;;;2.83;;
21754;SDS011;11039;50.028;19.938;2022-07-06T13:37:19;5.60;;;2.80;;
21754;SDS011;11039;50.028;19.938;2022-07-06T13:39:46;4.20;;;2.65;;
21754;SDS011;11039;50.028;19.938;2022-07-06T13:42:12;3.45;;;2.50;;
21754;SDS011;11039;50.028;19.938;2022-07-06T13:44:38;4.28;;;2.50;;
21754;SDS011;11039;50.028;19.938;2022-07-06T13:47:04;4.35;;;2.70;;
21754;SDS011;11039;50.028;19.938;2022-07-06T13:49:30;21.77;;;12.82;;
21754;SDS011;11039;50.028;19.938;2022-07-06T13:51:56;20.55;;;12.65;;
21754;SDS011;11039;50.028;19.938;2022-07-06T13:54:28;13.10;;;8.10;;
21754;SDS011;11039;50.028;19.938;2022-07-06T13:56:54;15.73;;;7.80;;
21754;SDS011;11039;50.028;19.938;2022-07-06T13:59:20;12.48;;;7.35;;
21754;SDS011;11039;50.028;19.938;2022-07-06T14:01:46;10.48;;;6.35;;
21754;SDS011;11039;50.028;19.938;2022-07-06T14:04:12;13.18;;;7.03;;
21754;SDS011;11039;50.028;19.938;2022-07-06T14:06:38;9.07;;;5.47;;
21754;SDS011;11039;50.028;19.938;2022-07-06T14:09:04;11.82;;;5.80;;
21754;SDS011;11039;50.028;19.938;2022-07-06T14:11:30;10.25;;;5.68;;
21754;SDS011;11039;50.028;19.938;2022-07-06T14:13:56;7.93;;;5.05;;
21754;SDS011;11039;50.028;19.938;2022-07-06T14:16:22;7.85;;;4.82;;
21754;SDS011;11039;50.028;19.938;2022-07-06T14:18:48;10.07;;;5.07;;
21754;SDS011;11039;50.028;19.938;2022-07-06T14:21:16;7.80;;;4.18;;
21754;SDS011;11039;50.028;19.938;2022-07-06T14:23:42;5.95;;;3.92;;
21754;SDS011;11039;50.028;19.938;2022-07-06T14:26:08;4.97;;;3.08;;
21754;SDS011;11039;50.028;19.938;2022-07-06T14:28:34;8.40;;;3.90;;
21754;SDS011;11039;50.028;19.938;2022-07-06T14:31:00;7.90;;;3.47;;
21754;SDS011;11039;50.028;19.938;2022-07-06T14:33:27;5.05;;;3.17;;
21754;SDS011;11039;50.028;19.938;2022-07-06T14:35:53;5.03;;;3.00;;
21754;SDS011;11039;50.028;19.938;2022-07-06T14:38:20;4.45;;;2.92;;
21754;SDS011;11039;50.028;19.938;2022-07-06T14:40:46;6.68;;;3.58;;
21754;SDS011;11039;50.028;19.938;2022-07-06T14:43:15;4.45;;;3.15;;
21754;SDS011;11039;50.028;19.938;2022-07-06T14:45:45;4.30;;;3.60;;
21754;SDS011;11039;50.028;19.938;2022-07-06T14:48:11;5.82;;;3.47;;
21754;SDS011;11039;50.028;19.938;2022-07-06T14:50:38;7.85;;;3.53;;
21754;SDS011;11039;50.028;19.938;2022-07-06T14:53:04;4.43;;;3.13;;